Alcalde, New Mexico
Current Conditions -  °F | °C
As of 2:15 AM on Friday 28 Nov 2014 (Local Time) from KLAM Reporting Station
Clear Clear  
Wind Chill:   Ceiling: Unl
Heat Index:   Visibility: 10mi
Dew Point: -8°   Wind: 3mph
Humidity: 38%   Direction: 70°ENE
Pressure: 30.34"   Gusts: NA
Location:  36.09°N, 106.06°W
Report Text: KLAM 280915Z AUTO 07003KT 10SM CLR 05/M08 A3034 RMK AO2 T00531080
Loading
Personal Weather Stations






























Interactive Weather Map New forecast layout! Learn more

10-Day Weather Forecast

Advertisements
Track Severe Weather on mobile